|
公曆農曆對照

機場天氣預報 (TAF)

機場天氣預報 (TAF) 載述關於某個機場在預測期內預料會出現的氣象要素。

香港天文台在 18 年 11 月 19 日 01 時 00 分最新發出的香港國際機場天氣預報

TAF VHHH 181700Z 1818/1924 36010KT 7000 FEW012 SCT025 TX26/1906Z TN22/1823Z TN23/1923Z TEMPO 1818/1901 4000 BR -RA TEMPO 1906/1910 VRB05KT BECMG 1910/1912 09010KT=

(下次更新時間:18年11月19日07時00分)

機場天氣預報電碼經解碼後:-

香港天文台發出 2018 年 11 月 18 日 18 協調世界時 至 2018 年 11 月 19 日 24 協調世界時 的機場天氣預報:
 

時間(協調世界時) 能見度 天氣狀況 雲層 雲層高度
2018 年 11 月 18 日 18 時 至 2018 年 11 月 19 日 10 時 北風 (360 o) 10 海里/小時 7 公里 無重要天氣狀況
1-2
3-4
1200 呎
2500 呎
2018 年 11 月 18 日 18 時 至 2018 年 11 月 19 日 01 時 期間間中 北風 (360 o) 10 海里/小時 4000 米 薄霧, 微雨
1-2
3-4
1200 呎
2500 呎
2018 年 11 月 19 日 06 時 至 10 時 期間間中 5 海里/小時 (風向不定) 7 公里 無重要天氣狀況
1-2
3-4
1200 呎
2500 呎
2018 年 11 月 19 日 10 時 至 12 時 期間逐漸轉變為 東風 (090 o) 10 海里/小時 7 公里 無重要天氣狀況
1-2
3-4
1200 呎
2500 呎

時間(協調世界時) 氣溫
2018 年 11 月 19 日 06 時
最高26 oC
2018 年 11 月 18 日 23 時
最低22 oC
2018 年 11 月 19 日 23 時
最低23 oC

份: 雲層是以估計天空被雲遮蔽之總面積來評定。把天空分為八份,1 份即是八份之一的天空被雲遮蔽,2 份即是八份之二的天空被雲遮蔽,如此類推。
  0 份 = 天朗氣清,1-2 份 = 稀薄雲層,3-4 份 = 零散雲層,5-7 份 = 疏鬆雲層,8 份 = 天色陰暗。
若想進一步瞭解機場天氣預報(TAF)的編碼,請參看剖析TAF電碼的意義
若想進一步瞭解雲,請參看香港常見的雲
 
香港國際機場航空天氣報告資料 本港地區航空天氣預報
 
版權及聲明